createdAt,value
2023-02-02T00:02:10.194Z,5.60
2023-02-02T00:04:38.404Z,5.70
2023-02-02T00:07:07.742Z,5.70
2023-02-02T00:09:35.922Z,5.60
2023-02-02T00:12:03.991Z,5.60
2023-02-02T00:14:31.957Z,5.60
2023-02-02T00:17:01.551Z,5.60
2023-02-02T00:19:31.537Z,5.60
2023-02-02T00:22:00.083Z,5.60
2023-02-02T00:24:36.724Z,5.60
2023-02-02T00:27:09.625Z,5.60
2023-02-02T00:30:04.922Z,5.60
2023-02-02T00:32:55.108Z,5.60
2023-02-02T00:35:39.254Z,5.50
2023-02-02T00:38:07.441Z,5.40
2023-02-02T00:40:36.090Z,5.50
2023-02-02T00:43:04.316Z,5.50
2023-02-02T00:45:32.102Z,5.50
2023-02-02T00:48:01.687Z,5.40
2023-02-02T00:50:29.975Z,5.40
2023-02-02T00:52:59.131Z,5.40
2023-02-02T00:55:27.567Z,5.40
2023-02-02T00:57:55.833Z,5.40
2023-02-02T01:00:26.559Z,5.40
2023-02-02T01:02:55.673Z,5.40
2023-02-02T01:05:25.373Z,5.40
2023-02-02T01:07:53.761Z,5.30
2023-02-02T01:10:21.830Z,5.20
2023-02-02T01:12:49.924Z,5.10
2023-02-02T01:15:17.929Z,5.10
2023-02-02T01:17:45.910Z,5.00
2023-02-02T01:20:19.064Z,5.00
2023-02-02T01:22:49.182Z,5.00
2023-02-02T01:25:17.522Z,5.00
2023-02-02T01:27:45.572Z,4.90
2023-02-02T01:30:14.431Z,5.00
2023-02-02T01:32:42.320Z,4.90
2023-02-02T01:35:11.595Z,4.90
2023-02-02T01:37:40.372Z,5.00
2023-02-02T01:40:11.784Z,5.10
2023-02-02T01:42:39.742Z,5.00
2023-02-02T01:45:18.557Z,5.10
2023-02-02T01:47:50.397Z,5.10
2023-02-02T01:50:20.544Z,5.10
2023-02-02T01:52:50.948Z,5.10
2023-02-02T01:55:24.315Z,5.20
2023-02-02T01:57:56.549Z,5.20
2023-02-02T02:00:27.808Z,5.20
2023-02-02T02:02:59.455Z,5.20
2023-02-02T02:05:30.773Z,5.30
2023-02-02T02:08:05.299Z,5.20
2023-02-02T02:10:35.000Z,5.30
2023-02-02T02:13:02.987Z,5.30
2023-02-02T02:15:54.354Z,5.30
2023-02-02T02:18:32.088Z,5.30
2023-02-02T02:21:59.042Z,5.30
2023-02-02T02:25:19.596Z,5.40
2023-02-02T02:28:30.701Z,5.30
2023-02-02T02:31:28.771Z,5.30
2023-02-02T02:34:00.762Z,5.30
2023-02-02T02:36:36.766Z,5.30
2023-02-02T02:39:11.898Z,5.30
2023-02-02T02:41:45.973Z,5.30
2023-02-02T02:44:17.297Z,5.20
2023-02-02T02:46:46.403Z,5.30
2023-02-02T02:49:15.717Z,5.40
2023-02-02T02:51:47.450Z,5.30
2023-02-02T02:54:18.901Z,5.40
2023-02-02T02:57:07.554Z,5.30
2023-02-02T02:59:41.953Z,5.40
2023-02-02T03:02:24.626Z,5.30
2023-02-02T03:05:02.893Z,5.30
2023-02-02T03:07:36.468Z,5.20
2023-02-02T03:10:08.910Z,5.30
2023-02-02T03:12:45.845Z,5.40
2023-02-02T03:15:15.032Z,5.40
2023-02-02T03:17:43.858Z,5.30
2023-02-02T03:20:14.987Z,5.30
2023-02-02T03:22:42.937Z,5.30
2023-02-02T03:25:12.189Z,5.20
2023-02-02T03:27:41.242Z,5.10
2023-02-02T03:30:11.631Z,5.10
2023-02-02T03:32:40.049Z,5.10
2023-02-02T03:35:08.924Z,5.10
2023-02-02T03:37:38.311Z,5.10
2023-02-02T03:40:07.633Z,5.10
2023-02-02T03:42:38.601Z,5.00
2023-02-02T03:45:07.877Z,4.90
2023-02-02T03:47:35.838Z,4.90
2023-02-02T03:50:04.010Z,5.00
2023-02-02T03:52:32.068Z,5.00
2023-02-02T03:55:01.573Z,5.00
2023-02-02T03:57:29.647Z,5.00
2023-02-02T03:59:57.589Z,5.10
2023-02-02T04:02:25.724Z,5.10
2023-02-02T04:04:53.952Z,5.10
2023-02-02T04:07:21.943Z,5.20
2023-02-02T04:09:50.040Z,5.20
2023-02-02T04:12:19.338Z,5.20
2023-02-02T04:14:47.420Z,5.20
2023-02-02T04:17:15.317Z,5.20
2023-02-02T04:19:43.256Z,5.20
2023-02-02T04:22:11.294Z,5.20
2023-02-02T04:24:39.190Z,5.20
2023-02-02T04:27:07.406Z,5.20
2023-02-02T04:29:36.803Z,5.20
2023-02-02T04:32:05.073Z,5.30
2023-02-02T04:34:32.945Z,5.30
2023-02-02T04:37:00.838Z,5.30
2023-02-02T04:39:28.886Z,5.20
2023-02-02T04:41:57.062Z,5.20
2023-02-02T04:44:25.125Z,5.10
2023-02-02T04:46:54.449Z,5.10
2023-02-02T04:49:23.046Z,5.10
2023-02-02T04:51:51.384Z,5.10
2023-02-02T04:54:19.513Z,5.20
2023-02-02T04:56:47.432Z,5.20
2023-02-02T04:59:15.385Z,5.20
2023-02-02T05:01:43.439Z,5.20
2023-02-02T05:04:13.859Z,5.30
2023-02-02T05:06:42.071Z,5.40
2023-02-02T05:09:10.013Z,5.40
2023-02-02T05:11:38.865Z,5.50
2023-02-02T05:14:06.938Z,5.50
2023-02-02T05:16:34.886Z,5.60
2023-02-02T05:19:02.938Z,5.60
2023-02-02T05:21:32.569Z,5.60
2023-02-02T05:24:01.607Z,5.60
2023-02-02T05:26:29.708Z,5.60
2023-02-02T05:28:57.927Z,5.60
2023-02-02T05:31:26.379Z,5.60
2023-02-02T05:33:54.340Z,5.60
2023-02-02T05:36:22.282Z,5.60
2023-02-02T05:38:51.696Z,5.60
2023-02-02T05:41:20.087Z,5.70
2023-02-02T05:43:48.151Z,5.70
2023-02-02T05:46:16.185Z,5.60
2023-02-02T05:48:44.132Z,5.60
2023-02-02T05:51:16.592Z,5.60
2023-02-02T05:53:45.029Z,5.60
2023-02-02T05:56:15.924Z,5.60
2023-02-02T05:58:44.507Z,5.50
2023-02-02T06:01:12.771Z,5.50
2023-02-02T06:03:40.796Z,5.50
2023-02-02T06:06:09.072Z,5.50
2023-02-02T06:08:37.498Z,5.50
2023-02-02T06:11:10.550Z,5.50
2023-02-02T06:13:40.032Z,5.50
2023-02-02T06:16:09.253Z,5.50
2023-02-02T06:18:38.143Z,5.50
2023-02-02T06:21:07.570Z,5.50
2023-02-02T06:23:35.936Z,5.40
2023-02-02T06:26:04.586Z,5.40
2023-02-02T06:28:32.554Z,5.40
2023-02-02T06:31:06.802Z,5.50
2023-02-02T06:33:34.924Z,5.60
2023-02-02T06:36:03.615Z,5.60
2023-02-02T06:38:31.869Z,5.60
2023-02-02T06:41:01.112Z,5.60
2023-02-02T06:43:29.308Z,5.60
2023-02-02T06:45:58.904Z,5.60
2023-02-02T06:48:28.829Z,5.60
2023-02-02T06:50:59.424Z,5.50
2023-02-02T06:53:27.703Z,5.60
2023-02-02T06:55:56.440Z,5.60
2023-02-02T06:58:24.998Z,5.60
2023-02-02T07:00:52.934Z,5.70
2023-02-02T07:03:22.335Z,5.60
2023-02-02T07:05:51.779Z,5.60
2023-02-02T07:08:19.790Z,5.70
2023-02-02T07:11:14.332Z,5.60
2023-02-02T07:13:35.895Z,5.60
2023-02-02T07:16:04.907Z,5.60
2023-02-02T07:18:33.510Z,5.60
2023-02-02T07:21:02.799Z,5.70
2023-02-02T07:23:31.313Z,5.80
2023-02-02T07:26:03.383Z,5.80
2023-02-02T07:28:31.737Z,5.70
2023-02-02T07:31:00.152Z,5.60
2023-02-02T07:33:28.746Z,5.70
2023-02-02T07:35:56.752Z,5.70
2023-02-02T07:38:26.044Z,5.80
2023-02-02T07:40:54.118Z,5.80
2023-02-02T07:43:22.097Z,5.80
2023-02-02T07:45:50.158Z,5.80
2023-02-02T07:48:18.201Z,5.90
2023-02-02T07:50:46.143Z,6.00
2023-02-02T07:53:14.774Z,6.00
2023-02-02T07:55:44.016Z,6.00
2023-02-02T07:58:12.101Z,6.00
2023-02-02T08:00:40.005Z,5.90
2023-02-02T08:03:08.072Z,5.90
2023-02-02T08:05:36.254Z,5.90
2023-02-02T08:08:04.713Z,5.80
2023-02-02T08:10:32.819Z,5.90
2023-02-02T08:13:02.128Z,5.90
2023-02-02T08:15:30.356Z,5.90
2023-02-02T08:17:59.203Z,5.90
2023-02-02T08:20:27.477Z,5.90
2023-02-02T08:22:55.481Z,5.90
2023-02-02T08:25:23.629Z,5.80
2023-02-02T08:27:55.031Z,5.80
2023-02-02T08:30:24.356Z,5.90
2023-02-02T08:32:52.508Z,5.90
2023-02-02T08:35:21.665Z,6.00
2023-02-02T08:37:50.086Z,5.90
2023-02-02T08:40:18.767Z,5.80
2023-02-02T08:42:47.729Z,6.00
2023-02-02T08:46:03.995Z,6.00
2023-02-02T08:48:11.948Z,6.20
2023-02-02T08:50:40.936Z,6.10
2023-02-02T08:53:09.016Z,6.10
2023-02-02T08:55:37.103Z,6.00
2023-02-02T08:58:05.416Z,6.10
2023-02-02T09:00:33.328Z,6.10
2023-02-02T09:03:01.727Z,6.20
2023-02-02T09:05:31.067Z,6.20
2023-02-02T09:07:59.499Z,6.20
2023-02-02T09:10:27.760Z,6.20
2023-02-02T09:12:55.655Z,6.20
2023-02-02T09:15:24.128Z,6.10
2023-02-02T09:17:52.923Z,6.10
2023-02-02T09:20:21.555Z,6.10
2023-02-02T09:22:50.852Z,6.20
2023-02-02T09:25:18.921Z,6.20
2023-02-02T09:27:47.981Z,6.30
2023-02-02T09:30:17.349Z,6.30
2023-02-02T09:32:45.726Z,6.20
2023-02-02T09:35:13.644Z,6.20
2023-02-02T09:37:41.552Z,6.20
2023-02-02T09:40:17.829Z,6.20
2023-02-02T09:43:00.116Z,6.20
2023-02-02T09:45:37.024Z,6.20
2023-02-02T09:48:19.474Z,6.30
2023-02-02T09:50:51.211Z,6.30
2023-02-02T09:53:24.740Z,6.30
2023-02-02T09:55:58.073Z,6.40
2023-02-02T09:58:29.669Z,6.40
2023-02-02T10:01:02.741Z,6.30
2023-02-02T10:03:37.092Z,6.20
2023-02-02T10:06:13.703Z,6.00
2023-02-02T10:08:47.668Z,6.20
2023-02-02T10:11:30.815Z,6.10
2023-02-02T10:14:03.744Z,6.20
2023-02-02T10:16:33.596Z,6.30
2023-02-02T10:19:04.722Z,6.60
2023-02-02T10:21:40.383Z,6.80
2023-02-02T10:24:19.030Z,6.80
2023-02-02T10:26:51.437Z,6.80
2023-02-02T10:29:47.041Z,6.80
2023-02-02T10:32:23.182Z,6.70
2023-02-02T10:35:15.126Z,6.60
2023-02-02T10:37:51.294Z,6.60
2023-02-02T10:40:29.575Z,6.60
2023-02-02T10:43:40.677Z,6.60
2023-02-02T10:46:15.374Z,6.50
2023-02-02T10:48:46.440Z,6.60
2023-02-02T10:51:23.417Z,6.60
2023-02-02T10:53:53.508Z,6.70
2023-02-02T10:56:26.840Z,6.70
2023-02-02T10:59:02.571Z,6.80
2023-02-02T11:01:31.192Z,6.80
2023-02-02T11:04:19.046Z,6.70
2023-02-02T11:06:52.706Z,6.80
2023-02-02T11:09:23.623Z,6.70
2023-02-02T11:11:55.646Z,6.80
2023-02-02T11:14:35.167Z,6.80
2023-02-02T11:17:16.400Z,6.80
2023-02-02T11:19:45.482Z,6.90
2023-02-02T11:22:31.106Z,6.70
2023-02-02T11:25:01.806Z,6.70
2023-02-02T11:27:33.212Z,6.70
2023-02-02T11:30:14.227Z,6.70
2023-02-02T11:32:42.557Z,6.80
2023-02-02T11:35:23.270Z,6.90
2023-02-02T11:37:57.317Z,6.90
2023-02-02T11:40:31.027Z,6.90
2023-02-02T11:43:01.279Z,6.70
2023-02-02T11:45:35.798Z,6.70
2023-02-02T11:48:08.241Z,6.70
2023-02-02T11:50:37.440Z,6.80
2023-02-02T11:53:05.562Z,6.80
2023-02-02T11:55:33.757Z,6.80
2023-02-02T11:58:25.162Z,6.80
2023-02-02T12:01:00.394Z,7.00
2023-02-02T12:03:34.221Z,7.00
2023-02-02T12:06:18.397Z,6.90
2023-02-02T12:08:47.438Z,6.90
2023-02-02T12:11:25.810Z,6.70
2023-02-02T12:14:06.857Z,6.80
2023-02-02T12:16:53.576Z,6.80
2023-02-02T12:19:46.608Z,6.70
2023-02-02T12:22:40.124Z,6.60
2023-02-02T12:25:33.494Z,6.50
2023-02-02T12:28:11.249Z,6.40
2023-02-02T12:34:37.754Z,6.40
2023-02-02T12:37:25.627Z,6.50
2023-02-02T12:40:12.857Z,6.50
2023-02-02T12:43:05.137Z,6.50
2023-02-02T12:45:53.170Z,6.60
2023-02-02T12:48:50.423Z,6.60
2023-02-02T12:51:44.837Z,6.60
2023-02-02T12:54:48.744Z,6.50
2023-02-02T12:57:32.265Z,6.50
2023-02-02T13:00:24.909Z,6.40
2023-02-02T13:03:06.737Z,6.30
2023-02-02T13:05:49.181Z,6.30
2023-02-02T13:08:32.715Z,6.30
2023-02-02T13:11:27.678Z,6.40
2023-02-02T13:14:00.103Z,6.30
2023-02-02T13:16:30.784Z,6.20
2023-02-02T13:19:03.433Z,6.10
2023-02-02T13:21:32.768Z,6.20
2023-02-02T13:24:06.073Z,6.20
2023-02-02T13:26:39.166Z,6.20
2023-02-02T13:29:12.921Z,6.20
2023-02-02T13:31:48.642Z,6.20
2023-02-02T13:34:20.597Z,6.20
2023-02-02T13:36:58.096Z,6.10
2023-02-02T13:39:35.605Z,6.00
2023-02-02T13:42:16.814Z,6.00
2023-02-02T13:45:00.824Z,6.00
2023-02-02T13:47:35.796Z,6.10
2023-02-02T13:50:14.484Z,6.00
2023-02-02T13:52:56.194Z,6.00
2023-02-02T13:55:44.603Z,6.00
2023-02-02T13:58:25.866Z,5.90
2023-02-02T14:00:56.954Z,5.90
2023-02-02T14:03:38.587Z,5.80
2023-02-02T14:06:15.380Z,5.70
2023-02-02T14:08:48.047Z,5.70
2023-02-02T14:11:25.158Z,5.70
2023-02-02T14:14:13.683Z,5.80
2023-02-02T14:16:50.999Z,5.80
2023-02-02T14:19:35.070Z,5.70
2023-02-02T14:22:23.391Z,5.70
2023-02-02T14:24:53.788Z,5.80
2023-02-02T14:27:54.834Z,5.70
2023-02-02T14:30:36.282Z,5.70
2023-02-02T14:33:31.753Z,5.70
2023-02-02T14:36:05.525Z,5.70
2023-02-02T14:39:11.800Z,5.70
2023-02-02T14:42:24.492Z,5.70
2023-02-02T14:45:30.734Z,5.70
2023-02-02T14:48:02.551Z,5.70
2023-02-02T14:50:43.800Z,5.60
2023-02-02T14:53:22.223Z,5.70
2023-02-02T14:56:01.643Z,5.80
2023-02-02T14:58:34.182Z,5.90
2023-02-02T15:01:25.518Z,5.90
2023-02-02T15:03:56.381Z,5.80
2023-02-02T15:06:34.221Z,5.80
2023-02-02T15:09:36.593Z,5.70
2023-02-02T15:12:32.541Z,5.70
2023-02-02T15:15:11.988Z,5.70
2023-02-02T15:17:56.156Z,5.60
2023-02-02T15:20:30.850Z,5.60
2023-02-02T15:23:03.591Z,5.50
2023-02-02T15:25:35.580Z,5.60
2023-02-02T15:28:11.505Z,5.60
2023-02-02T15:30:45.710Z,5.60
2023-02-02T15:33:28.141Z,5.60
2023-02-02T15:36:03.396Z,5.50
2023-02-02T15:38:35.268Z,5.60
2023-02-02T15:41:08.958Z,5.60
2023-02-02T15:43:37.490Z,5.60
2023-02-02T15:46:08.778Z,5.60
2023-02-02T15:48:36.809Z,5.60
2023-02-02T15:51:08.314Z,5.70
2023-02-02T15:53:49.510Z,5.70
2023-02-02T15:56:29.291Z,5.80
2023-02-02T15:59:00.078Z,5.80
2023-02-02T16:01:33.577Z,5.60
2023-02-02T16:04:16.270Z,5.60
2023-02-02T16:06:47.473Z,5.50
2023-02-02T16:09:25.990Z,5.60
2023-02-02T16:11:54.771Z,5.60
2023-02-02T16:14:23.950Z,5.50
2023-02-02T16:16:52.095Z,5.50
2023-02-02T16:19:22.233Z,5.40
2023-02-02T16:21:55.458Z,5.50
2023-02-02T16:24:27.030Z,5.50
2023-02-02T16:26:56.959Z,5.50
2023-02-02T16:29:27.386Z,5.50
2023-02-02T16:31:56.483Z,5.50
2023-02-02T16:34:46.753Z,5.60
2023-02-02T16:37:18.986Z,5.70
2023-02-02T16:39:47.216Z,5.90
2023-02-02T16:42:26.143Z,5.90
2023-02-02T16:44:55.485Z,5.90
2023-02-02T16:47:39.067Z,5.90
2023-02-02T16:50:29.170Z,5.80
2023-02-02T16:53:05.281Z,5.80
2023-02-02T16:55:50.547Z,5.80
2023-02-02T16:58:23.602Z,5.80
2023-02-02T17:01:12.748Z,5.80
2023-02-02T17:03:50.515Z,5.90
2023-02-02T17:06:18.819Z,5.90
2023-02-02T17:08:48.321Z,5.90
2023-02-02T17:11:25.860Z,5.90
2023-02-02T17:13:54.920Z,5.90
2023-02-02T17:16:24.671Z,5.90
2023-02-02T17:18:53.167Z,5.90
2023-02-02T17:21:23.625Z,5.90
2023-02-02T17:23:54.802Z,6.00
2023-02-02T17:26:23.222Z,6.10
2023-02-02T17:28:55.983Z,6.10
2023-02-02T17:31:24.340Z,6.20
2023-02-02T17:33:52.456Z,6.10
2023-02-02T17:36:20.903Z,6.10
2023-02-02T17:38:48.957Z,6.10
2023-02-02T17:41:18.300Z,6.00
2023-02-02T17:43:46.206Z,6.00
2023-02-02T17:46:14.772Z,6.00
2023-02-02T17:48:42.910Z,6.00
2023-02-02T17:51:16.327Z,6.10
2023-02-02T17:53:44.563Z,6.00
2023-02-02T17:56:12.675Z,6.10
2023-02-02T17:58:42.155Z,6.10
2023-02-02T18:01:12.886Z,6.10
2023-02-02T18:03:42.641Z,6.10
2023-02-02T18:06:12.035Z,6.00
2023-02-02T18:08:40.839Z,6.00
2023-02-02T18:11:12.321Z,6.00
2023-02-02T18:13:43.467Z,6.00
2023-02-02T18:16:13.434Z,6.00
2023-02-02T18:18:41.455Z,6.10
2023-02-02T18:21:10.956Z,6.20
2023-02-02T18:23:39.702Z,6.20
2023-02-02T18:26:17.584Z,6.10
2023-02-02T18:28:48.828Z,6.10
2023-02-02T18:31:19.521Z,6.10
2023-02-02T18:33:48.508Z,5.90
2023-02-02T18:36:19.856Z,5.90
2023-02-02T18:38:50.729Z,5.90
2023-02-02T18:41:21.674Z,5.80
2023-02-02T18:43:52.761Z,5.80
2023-02-02T18:46:21.118Z,5.80
2023-02-02T18:48:49.078Z,5.60
2023-02-02T18:51:19.139Z,5.60
2023-02-02T18:53:48.967Z,5.60
2023-02-02T18:56:17.337Z,5.50
2023-02-02T18:58:45.723Z,5.50
2023-02-02T19:01:17.226Z,5.50
2023-02-02T19:03:49.480Z,5.40
2023-02-02T19:06:35.628Z,5.40
2023-02-02T19:09:03.981Z,5.40
2023-02-02T19:11:39.021Z,5.40
2023-02-02T19:14:12.155Z,5.40
2023-02-02T19:16:41.978Z,5.40
2023-02-02T19:19:16.624Z,5.40
2023-02-02T19:21:44.899Z,5.40
2023-02-02T19:24:14.363Z,5.50
2023-02-02T19:26:46.874Z,5.50
2023-02-02T19:29:19.595Z,5.50
2023-02-02T19:31:53.440Z,5.40
2023-02-02T19:34:23.303Z,5.40
2023-02-02T19:36:52.202Z,5.50
2023-02-02T19:39:23.270Z,5.40
2023-02-02T19:41:52.603Z,5.40
2023-02-02T19:44:22.046Z,5.40
2023-02-02T19:46:54.000Z,5.50
2023-02-02T19:49:29.410Z,5.40
2023-02-02T19:51:59.437Z,5.40
2023-02-02T19:54:33.767Z,5.40
2023-02-02T19:57:07.509Z,5.40
2023-02-02T19:59:36.461Z,5.40
2023-02-02T20:02:44.773Z,5.40
2023-02-02T20:05:20.261Z,5.40
2023-02-02T20:07:49.793Z,5.40
2023-02-02T20:10:22.227Z,5.40
2023-02-02T20:12:51.121Z,5.40
2023-02-02T20:15:28.477Z,5.50
2023-02-02T20:18:01.116Z,5.50
2023-02-02T20:20:31.159Z,5.50
2023-02-02T20:22:59.220Z,5.50
2023-02-02T20:25:29.295Z,5.50
2023-02-02T20:27:58.990Z,5.50
2023-02-02T20:30:30.950Z,5.50
2023-02-02T20:33:03.169Z,5.50
2023-02-02T20:35:37.438Z,5.50
2023-02-02T20:38:19.113Z,5.50
2023-02-02T20:40:47.262Z,5.60
2023-02-02T20:43:15.980Z,5.60
2023-02-02T20:45:44.207Z,5.60
2023-02-02T20:48:15.261Z,5.40
2023-02-02T20:50:44.014Z,5.50
2023-02-02T20:53:14.870Z,5.50
2023-02-02T20:55:42.905Z,5.50
2023-02-02T20:58:11.403Z,5.50
2023-02-02T21:00:39.873Z,5.50
2023-02-02T21:03:07.881Z,5.50
2023-02-02T21:05:37.196Z,5.50
2023-02-02T21:08:05.580Z,5.50
2023-02-02T21:10:33.744Z,5.60
2023-02-02T21:13:01.749Z,5.60
2023-02-02T21:15:29.873Z,5.60
2023-02-02T21:17:58.066Z,5.50
2023-02-02T21:20:26.278Z,5.50
2023-02-02T21:22:56.887Z,5.50
2023-02-02T21:25:24.958Z,5.50
2023-02-02T21:27:52.931Z,5.60
2023-02-02T21:30:20.976Z,5.50
2023-02-02T21:32:49.014Z,5.50
2023-02-02T21:35:17.109Z,5.50
2023-02-02T21:37:47.284Z,5.40
2023-02-02T21:40:25.201Z,5.40
2023-02-02T21:42:53.350Z,5.50
2023-02-02T21:45:34.401Z,5.50
2023-02-02T21:48:03.783Z,5.50
2023-02-02T21:50:35.706Z,5.50
2023-02-02T21:53:20.351Z,5.60
2023-02-02T21:55:53.578Z,5.60
2023-02-02T21:58:25.037Z,5.60
2023-02-02T22:00:54.000Z,5.50
2023-02-02T22:03:35.283Z,5.50
2023-02-02T22:06:28.392Z,5.50
2023-02-02T22:09:02.208Z,5.50
2023-02-02T22:11:40.130Z,5.50
2023-02-02T22:14:19.146Z,5.50
2023-02-02T22:16:50.455Z,5.50
2023-02-02T22:19:38.962Z,5.50
2023-02-02T22:22:19.496Z,5.50
2023-02-02T22:24:53.721Z,5.60
2023-02-02T22:27:25.470Z,5.60
2023-02-02T22:29:59.302Z,5.60
2023-02-02T22:32:28.219Z,5.60
2023-02-02T22:34:56.173Z,5.60
2023-02-02T22:37:24.506Z,5.70
2023-02-02T22:39:52.513Z,5.50
2023-02-02T22:42:20.452Z,5.60
2023-02-02T22:44:50.595Z,5.60
2023-02-02T22:47:18.566Z,5.60
2023-02-02T22:49:46.725Z,5.60
2023-02-02T22:52:14.730Z,5.60
2023-02-02T22:54:45.554Z,5.60
2023-02-02T22:57:13.555Z,5.60
2023-02-02T22:59:41.712Z,5.60
2023-02-02T23:02:11.139Z,5.70
2023-02-02T23:04:39.299Z,5.70
2023-02-02T23:07:07.425Z,5.70
2023-02-02T23:09:35.638Z,5.70
2023-02-02T23:12:04.013Z,5.80
2023-02-02T23:14:31.965Z,5.70
2023-02-02T23:17:00.050Z,5.70
2023-02-02T23:19:29.501Z,5.70
2023-02-02T23:21:57.648Z,5.80
2023-02-02T23:24:25.776Z,5.80
2023-02-02T23:26:53.728Z,5.80
2023-02-02T23:29:21.698Z,5.90
2023-02-02T23:31:49.989Z,5.90
2023-02-02T23:34:18.142Z,5.90
2023-02-02T23:36:47.579Z,5.90
2023-02-02T23:39:15.674Z,5.90
2023-02-02T23:41:43.674Z,6.00
2023-02-02T23:44:11.627Z,6.00
2023-02-02T23:46:40.903Z,6.00
2023-02-02T23:49:09.143Z,6.00
2023-02-02T23:51:37.114Z,5.90
2023-02-02T23:54:06.975Z,6.00
2023-02-02T23:56:35.355Z,5.90
2023-02-02T23:59:03.380Z,5.90
